createdAt,value
2019-04-01T00:00:19.233Z,2.9
2019-04-01T00:01:28.565Z,2.9
2019-04-01T00:02:37.633Z,3.1
2019-04-01T00:03:46.862Z,3
2019-04-01T00:04:56.028Z,3.1
2019-04-01T00:06:05.366Z,3
2019-04-01T00:07:14.429Z,3
2019-04-01T00:08:23.609Z,2.9
2019-04-01T00:09:32.815Z,2.9
2019-04-01T00:10:43.117Z,2.7
2019-04-01T00:11:52.314Z,2.8
2019-04-01T00:13:01.504Z,2.8
2019-04-01T00:14:10.869Z,2.6
2019-04-01T00:15:19.895Z,2.5
2019-04-01T00:16:29.175Z,2.4
2019-04-01T00:17:38.315Z,2.3
2019-04-01T00:19:02.009Z,2.3
2019-04-01T00:19:58.299Z,2.6
2019-04-01T00:21:07.472Z,2.5
2019-04-01T00:22:16.661Z,2.7
2019-04-01T00:23:25.839Z,2.8
2019-04-01T00:24:35.062Z,2.9
2019-04-01T00:25:44.228Z,3
2019-04-01T00:26:53.412Z,3
2019-04-01T00:28:02.746Z,2.8
2019-04-01T00:29:11.789Z,2.7
2019-04-01T00:30:21.056Z,2.6
2019-04-01T00:31:30.444Z,2.5
2019-04-01T00:33:48.532Z,2.2
2019-04-01T00:34:57.717Z,2.1
2019-04-01T00:36:06.921Z,2
2019-04-01T00:37:16.140Z,2
2019-04-01T00:38:25.339Z,1.8
2019-04-01T00:39:34.459Z,1.7
2019-04-01T00:40:43.654Z,1.8
2019-04-01T00:41:52.963Z,1.8
2019-04-01T00:43:02.028Z,1.7
2019-04-01T00:44:11.211Z,1.7
2019-04-01T00:45:20.442Z,1.6
2019-04-01T00:46:29.610Z,1.5
2019-04-01T00:47:38.759Z,1.5
2019-04-01T00:48:47.901Z,2.1
2019-04-01T00:49:57.116Z,2.2
2019-04-01T00:51:06.348Z,2.3
2019-04-01T00:52:15.429Z,2.3
2019-04-01T00:53:24.596Z,2.1
2019-04-01T00:54:33.772Z,1.9
2019-04-01T00:55:42.968Z,1.8
2019-04-01T00:56:53.267Z,1.7
2019-04-01T00:58:02.446Z,1.7
2019-04-01T00:59:11.643Z,1.7
2019-04-01T01:00:21.030Z,1.5
2019-04-01T01:01:29.997Z,1.4
2019-04-01T01:02:39.145Z,1.4
2019-04-01T01:03:48.306Z,1.3
2019-04-01T01:04:57.489Z,1.2
2019-04-01T01:06:06.642Z,2
2019-04-01T01:07:15.839Z,2
2019-04-01T01:08:25.032Z,2
2019-04-01T01:09:34.160Z,2
2019-04-01T01:10:43.341Z,1.9
2019-04-01T01:11:52.506Z,1.8
2019-04-01T01:13:01.679Z,1.7
2019-04-01T01:14:10.840Z,1.6
2019-04-01T01:15:20.028Z,1.6
2019-04-01T01:16:29.230Z,1.6
2019-04-01T01:17:38.351Z,1.6
2019-04-01T01:18:47.825Z,1.6
2019-04-01T01:19:56.707Z,1.5
2019-04-01T01:21:05.911Z,1.4
2019-04-01T01:22:15.051Z,1.3
2019-04-01T01:23:24.220Z,1.3
2019-04-01T01:24:33.366Z,2.3
2019-04-01T01:25:42.528Z,1.9
2019-04-01T01:26:51.730Z,1.6
2019-04-01T01:28:00.859Z,1.6
2019-04-01T01:29:10.041Z,1.6
2019-04-01T01:30:19.201Z,1.4
2019-04-01T01:31:28.380Z,1.6
2019-04-01T01:32:37.579Z,1.9
2019-04-01T01:33:46.714Z,1.9
2019-04-01T01:34:55.859Z,2.4
2019-04-01T01:36:05.027Z,2.4
2019-04-01T01:37:14.241Z,2.2
2019-04-01T01:38:23.388Z,2.1
2019-04-01T01:39:32.536Z,2.2
2019-04-01T01:40:41.709Z,2.3
2019-04-01T01:41:50.886Z,2.1
2019-04-01T01:43:00.092Z,2
2019-04-01T01:44:09.246Z,1.9
2019-04-01T01:45:18.378Z,1.8
2019-04-01T01:46:27.545Z,1.7
2019-04-01T01:47:36.773Z,1.6
2019-04-01T01:48:45.904Z,1.5
2019-04-01T01:49:55.086Z,1.4
2019-04-01T01:51:04.222Z,1.5
2019-04-01T01:52:13.392Z,1.8
2019-04-01T01:53:22.605Z,1.8
2019-04-01T01:54:31.745Z,1.6
2019-04-01T01:55:40.890Z,1.4
2019-04-01T01:56:50.101Z,1.3
2019-04-01T01:57:59.242Z,1.2
2019-04-01T01:59:08.408Z,1.2
2019-04-01T02:00:17.666Z,1.3
2019-04-01T02:01:26.737Z,1.4
2019-04-01T02:02:35.893Z,1.5
2019-04-01T02:03:45.102Z,1.9
2019-04-01T02:04:54.243Z,2.1
2019-04-01T02:06:03.431Z,2.4
2019-04-01T02:07:12.585Z,2.4
2019-04-01T02:08:21.748Z,2.7
2019-04-01T02:09:30.883Z,2.5
2019-04-01T02:10:40.057Z,2.7
2019-04-01T02:11:49.373Z,2.5
2019-04-01T02:12:58.389Z,2.2
2019-04-01T02:14:07.606Z,2.3
2019-04-01T02:15:16.842Z,2.4
2019-04-01T02:16:25.897Z,2.3
2019-04-01T02:17:35.117Z,2.4
2019-04-01T02:18:44.238Z,2.1
2019-04-01T02:21:02.664Z,2.6
2019-04-01T02:22:11.795Z,2.3
2019-04-01T02:23:21.046Z,2.2
2019-04-01T02:24:30.089Z,2
2019-04-01T02:25:39.256Z,2.2
2019-04-01T02:26:48.433Z,2
2019-04-01T02:27:57.597Z,2.1
2019-04-01T02:29:06.769Z,2.4
2019-04-01T02:30:15.945Z,2.7
2019-04-01T02:31:25.082Z,2.8
2019-04-01T02:32:34.263Z,2.7
2019-04-01T02:33:43.436Z,2.5
2019-04-01T02:34:52.723Z,2.6
2019-04-01T02:36:01.820Z,3
2019-04-01T02:37:10.998Z,3
2019-04-01T02:38:20.082Z,2.9
2019-04-01T02:39:29.254Z,2.8
2019-04-01T02:40:38.425Z,3.1
2019-04-01T02:41:47.589Z,3.2
2019-04-01T02:42:56.804Z,3.1
2019-04-01T02:44:06.065Z,3.1
2019-04-01T02:45:15.148Z,3.1
2019-04-01T02:46:24.299Z,3.1
2019-04-01T02:47:33.473Z,3.1
2019-04-01T02:48:42.703Z,3.1
2019-04-01T02:49:51.816Z,2.9
2019-04-01T02:51:01.147Z,2.8
2019-04-01T02:52:10.174Z,2.6
2019-04-01T02:53:19.347Z,2.8
2019-04-01T02:54:28.579Z,2.6
2019-04-01T02:55:37.714Z,2.7
2019-04-01T02:56:46.926Z,2.9
2019-04-01T02:57:56.088Z,3
2019-04-01T02:59:05.395Z,2.8
2019-04-01T03:00:14.427Z,2.9
2019-04-01T03:01:23.589Z,2.7
2019-04-01T03:02:32.768Z,2.4
2019-04-01T03:03:41.947Z,2.4
2019-04-01T03:04:51.215Z,2.3
2019-04-01T03:06:00.397Z,2.3
2019-04-01T03:07:09.602Z,2.2
2019-04-01T03:08:18.663Z,2.2
2019-04-01T03:09:27.825Z,2.6
2019-04-01T03:10:37.038Z,2.8
2019-04-01T03:11:46.173Z,3
2019-04-01T03:12:55.355Z,3.1
2019-04-01T03:14:04.525Z,3.2
2019-04-01T03:15:13.704Z,3.2
2019-04-01T03:16:22.867Z,3.1
2019-04-01T03:17:32.035Z,3.1
2019-04-01T03:18:41.208Z,3.1
2019-04-01T03:19:50.427Z,3
2019-04-01T03:20:59.582Z,2.9
2019-04-01T03:22:08.808Z,3
2019-04-01T03:23:18.023Z,3
2019-04-01T03:24:27.113Z,3.1
2019-04-01T03:25:36.389Z,3
2019-04-01T03:26:45.545Z,2.9
2019-04-01T03:27:54.656Z,2.9
2019-04-01T03:29:03.826Z,2.8
2019-04-01T03:30:13.067Z,2.8
2019-04-01T03:31:22.383Z,2.7
2019-04-01T03:32:31.361Z,2.9
2019-04-01T03:33:40.601Z,2.9
2019-04-01T03:34:49.893Z,2.9
2019-04-01T03:35:58.914Z,2.9
2019-04-01T03:37:08.110Z,3
2019-04-01T03:38:17.279Z,3
2019-04-01T03:39:26.468Z,3.1
2019-04-01T03:40:35.715Z,3
2019-04-01T03:41:44.857Z,2.9
2019-04-01T03:42:54.020Z,2.7
2019-04-01T03:44:03.223Z,2.6
2019-04-01T03:45:12.380Z,2.5
2019-04-01T03:46:21.569Z,2.5
2019-04-01T03:47:30.749Z,2.5
2019-04-01T03:48:39.939Z,2.4
2019-04-01T03:49:49.241Z,2.5
2019-04-01T03:50:58.382Z,2.9
2019-04-01T03:52:10.118Z,2.8
2019-04-01T03:53:16.683Z,2.9
2019-04-01T03:54:25.860Z,3
2019-04-01T03:55:35.007Z,2.7
2019-04-01T03:56:44.200Z,2.8
2019-04-01T03:57:53.396Z,2.8
2019-04-01T03:59:02.562Z,2.9
2019-04-01T04:00:11.753Z,2.9
2019-04-01T04:01:20.901Z,3
2019-04-01T04:02:30.076Z,3
2019-04-01T04:03:39.314Z,3
2019-04-01T04:04:48.453Z,3
2019-04-01T04:05:58.837Z,3
2019-04-01T04:07:07.974Z,3.1
2019-04-01T04:08:17.189Z,2.9
2019-04-01T04:09:26.621Z,2.9
2019-04-01T04:10:35.525Z,2.7
2019-04-01T04:11:44.745Z,2.7
2019-04-01T04:12:53.860Z,2.7
2019-04-01T04:14:03.101Z,2.5
2019-04-01T04:15:12.244Z,2.2
2019-04-01T04:16:21.454Z,2.4
2019-04-01T04:17:30.586Z,2.2
2019-04-01T04:18:39.890Z,1.9
2019-04-01T04:19:48.950Z,1.6
2019-04-01T04:20:58.137Z,1.4
2019-04-01T04:22:07.309Z,1.2
2019-04-01T04:23:17.613Z,1.1
2019-04-01T04:24:26.769Z,1
2019-04-01T04:25:35.965Z,1
2019-04-01T04:26:45.104Z,0.9
2019-04-01T04:27:54.277Z,0.9
2019-04-01T04:29:03.447Z,0.8
2019-04-01T04:30:12.601Z,0.7
2019-04-01T04:31:21.823Z,0.5
2019-04-01T04:32:30.982Z,0.4
2019-04-01T04:33:40.104Z,0.5
2019-04-01T04:34:49.270Z,0.6
2019-04-01T04:35:58.428Z,0.8
2019-04-01T04:38:16.792Z,0.7
2019-04-01T04:39:25.908Z,0.6
2019-04-01T04:40:35.300Z,0.6
2019-04-01T04:41:44.249Z,0.6
2019-04-01T04:42:53.406Z,0.6
2019-04-01T04:44:02.551Z,0.6
2019-04-01T04:45:11.711Z,0.5
2019-04-01T04:46:21.396Z,0.5
2019-04-01T04:47:30.064Z,0.5
2019-04-01T04:48:39.165Z,0.5
2019-04-01T04:49:48.328Z,0.9
2019-04-01T04:50:57.465Z,1
2019-04-01T04:52:06.608Z,0.9
2019-04-01T04:53:15.823Z,0.8
2019-04-01T04:54:24.948Z,0.7
2019-04-01T04:55:34.077Z,0.9
2019-04-01T04:56:43.259Z,1.1
2019-04-01T04:57:52.392Z,1.3
2019-04-01T04:59:01.524Z,1.5
2019-04-01T05:00:10.836Z,1.7
2019-04-01T05:01:19.846Z,1.9
2019-04-01T05:02:29.006Z,2.1
2019-04-01T05:03:38.149Z,2.3
2019-04-01T05:04:47.280Z,2.4
2019-04-01T05:05:56.449Z,2.6
2019-04-01T05:07:05.643Z,2.9
2019-04-01T05:08:14.747Z,3
2019-04-01T05:09:23.928Z,3.1
2019-04-01T05:10:33.119Z,3.2
2019-04-01T05:11:42.360Z,3.5
2019-04-01T05:12:51.527Z,3.7
2019-04-01T05:14:01.327Z,4
2019-04-01T05:15:09.728Z,4.3
2019-04-01T05:16:18.905Z,4.5
2019-04-01T05:17:28.072Z,4.5
2019-04-01T05:18:37.270Z,4.6
2019-04-01T05:19:46.436Z,4.7
2019-04-01T05:20:55.610Z,4.9
2019-04-01T05:22:04.813Z,5.1
2019-04-01T05:23:14.048Z,5.3
2019-04-01T05:24:23.181Z,5.5
2019-04-01T05:25:32.390Z,5.7
2019-04-01T05:26:41.552Z,6
2019-04-01T05:27:50.882Z,6
2019-04-01T05:28:59.962Z,6.2
2019-04-01T05:30:09.285Z,5.4
2019-04-01T05:31:18.366Z,5.7
2019-04-01T05:32:27.559Z,6
2019-04-01T05:33:36.798Z,6.3
2019-04-01T05:34:45.974Z,6.5
2019-04-01T05:35:55.196Z,6.6
2019-04-01T05:37:04.592Z,6.5
2019-04-01T05:38:13.629Z,6.6
2019-04-01T05:39:22.898Z,6.9
2019-04-01T05:40:32.078Z,7
2019-04-01T05:41:41.331Z,6.9
2019-04-01T05:42:50.591Z,7.1
2019-04-01T05:44:02.216Z,6.9
2019-04-01T05:45:09.042Z,7.2
2019-04-01T05:46:18.303Z,7.4
2019-04-01T05:47:27.522Z,7.4
2019-04-01T05:48:36.777Z,7.5
2019-04-01T05:49:46.024Z,7.4
2019-04-01T05:50:55.338Z,7.2
2019-04-01T05:52:04.550Z,7.5
2019-04-01T05:53:13.848Z,7.4
2019-04-01T05:54:23.081Z,7.5
2019-04-01T05:55:32.347Z,7.5
2019-04-01T05:56:41.658Z,7.9
2019-04-01T05:57:50.933Z,7.8
2019-04-01T05:59:00.193Z,7.7
2019-04-01T06:00:09.487Z,8.2
2019-04-01T06:01:18.871Z,8.9
2019-04-01T06:02:28.075Z,8.6
2019-04-01T06:03:37.434Z,8.4
2019-04-01T06:04:46.682Z,7.8
2019-04-01T06:05:56.014Z,7.9
2019-04-01T06:07:05.476Z,8.2
2019-04-01T06:08:14.712Z,6.1
2019-04-01T06:09:23.961Z,6.3
2019-04-01T06:10:34.470Z,5.8
2019-04-01T06:11:43.757Z,6.3
2019-04-01T06:14:02.330Z,6.3
2019-04-01T06:15:11.689Z,7.1
2019-04-01T06:16:20.993Z,6.4
2019-04-01T06:17:30.390Z,6
2019-04-01T06:18:39.664Z,5.5
2019-04-01T06:19:48.966Z,5
2019-04-01T06:20:58.339Z,5.9
2019-04-01T06:22:07.977Z,7
2019-04-01T06:23:17.013Z,6.6
2019-04-01T06:24:26.286Z,6.3
2019-04-01T06:25:35.701Z,6.7
2019-04-01T06:26:45.028Z,7.3
2019-04-01T06:27:54.357Z,6.3
2019-04-01T06:29:03.647Z,6.8
2019-04-01T06:30:13.062Z,6
2019-04-01T06:31:22.351Z,6.9
2019-04-01T06:32:31.777Z,6.4
2019-04-01T06:33:41.048Z,6.9
2019-04-01T06:34:52.848Z,8
2019-04-01T06:35:59.810Z,7.2
2019-04-01T06:37:09.297Z,7.6
2019-04-01T06:38:18.449Z,6.5
2019-04-01T06:39:28.012Z,5.6
2019-04-01T06:40:37.202Z,5.4
2019-04-01T06:41:46.538Z,5.4
2019-04-01T06:42:55.908Z,5.7
2019-04-01T06:44:05.311Z,6
2019-04-01T06:45:14.629Z,6
2019-04-01T06:46:24.169Z,6.5
2019-04-01T06:47:33.336Z,7.1
2019-04-01T06:48:42.671Z,6.6
2019-04-01T06:49:52.034Z,6.6
2019-04-01T06:51:01.408Z,6.1
2019-04-01T06:52:11.338Z,6.6
2019-04-01T06:53:20.226Z,5.8
2019-04-01T06:54:29.473Z,5.6
2019-04-01T06:55:38.920Z,6.3
2019-04-01T06:56:48.246Z,6.3
2019-04-01T06:57:57.608Z,6.5
2019-04-01T06:59:06.980Z,6.6
2019-04-01T07:00:16.379Z,6.8
2019-04-01T07:01:25.688Z,6.9
2019-04-01T07:02:35.041Z,6.6
2019-04-01T07:03:44.426Z,7
2019-04-01T07:04:53.809Z,6.2
2019-04-01T07:06:03.166Z,6.7
2019-04-01T07:07:18.601Z,6.3
2019-04-01T07:08:21.867Z,5.9
2019-04-01T07:09:31.277Z,6.3
2019-04-01T07:10:40.629Z,6.6
2019-04-01T07:11:50.033Z,7.4
2019-04-01T07:12:59.398Z,8.1
2019-04-01T07:14:08.812Z,7.4
2019-04-01T07:15:18.181Z,6.9
2019-04-01T07:16:27.571Z,7.1
2019-04-01T07:17:37.000Z,6.8
2019-04-01T07:18:46.855Z,7.2
2019-04-01T07:19:55.823Z,7.9
2019-04-01T07:21:05.245Z,7.9
2019-04-01T07:22:14.651Z,8.6
2019-04-01T07:23:24.045Z,7.7
2019-04-01T07:24:33.419Z,6.5
2019-04-01T07:25:42.970Z,6.8
2019-04-01T07:26:52.259Z,7.4
2019-04-01T07:28:01.664Z,8.4
2019-04-01T07:29:11.160Z,8.6
2019-04-01T07:30:20.778Z,7.2
2019-04-01T07:31:29.935Z,6.3
2019-04-01T07:32:39.355Z,7.3
2019-04-01T07:33:48.819Z,7
2019-04-01T07:34:58.216Z,6.4
2019-04-01T07:36:07.682Z,7.8
2019-04-01T07:38:26.542Z,7.7
2019-04-01T07:39:35.960Z,9.4
2019-04-01T07:40:45.395Z,7.4
2019-04-01T07:41:55.038Z,6.9
2019-04-01T07:43:04.291Z,7.8
2019-04-01T07:44:13.728Z,9.2
2019-04-01T07:45:23.173Z,8.9
2019-04-01T07:46:32.682Z,8.8
2019-04-01T07:47:42.193Z,7.3
2019-04-01T07:48:51.616Z,7
2019-04-01T07:50:01.049Z,7.2
2019-04-01T07:51:10.486Z,7.6
2019-04-01T07:52:19.958Z,7.8
2019-04-01T07:53:29.440Z,7.8
2019-04-01T07:54:38.893Z,9.1
2019-04-01T07:55:48.367Z,8.6
2019-04-01T07:56:57.827Z,8.4
2019-04-01T07:58:07.347Z,7.9
2019-04-01T07:59:16.810Z,8.5
2019-04-01T08:00:26.372Z,7.8
2019-04-01T08:01:35.751Z,8
2019-04-01T08:02:48.667Z,8.6
2019-04-01T08:03:54.751Z,8
2019-04-01T08:05:04.217Z,7.6
2019-04-01T08:06:14.007Z,7.8
2019-04-01T08:07:23.156Z,8.1
2019-04-01T08:08:32.655Z,6.8
2019-04-01T08:09:42.098Z,7.9
2019-04-01T08:10:51.618Z,7.2
2019-04-01T08:12:01.212Z,7.4
2019-04-01T08:13:10.521Z,7.9
2019-04-01T08:14:19.996Z,9
2019-04-01T08:15:29.546Z,8.5
2019-04-01T08:16:39.005Z,9
2019-04-01T08:17:48.444Z,9.1
2019-04-01T08:18:57.949Z,7.8
2019-04-01T08:20:07.427Z,8.8
2019-04-01T08:21:16.947Z,7.7
2019-04-01T08:22:26.651Z,7.9
2019-04-01T08:23:36.226Z,8.8
2019-04-01T08:24:45.455Z,10.4
2019-04-01T08:25:54.987Z,10.6
2019-04-01T08:27:07.224Z,10.6
2019-04-01T08:28:14.077Z,8.4
2019-04-01T08:29:29.768Z,8.5
2019-04-01T08:30:33.177Z,8.8
2019-04-01T08:31:42.881Z,8.8
2019-04-01T08:32:52.197Z,9.2
2019-04-01T08:34:02.105Z,9.4
2019-04-01T08:35:11.287Z,8.9
2019-04-01T08:36:20.825Z,8.4
2019-04-01T08:37:30.372Z,8.3
2019-04-01T08:38:40.012Z,8.4
2019-04-01T08:39:49.537Z,9.2
2019-04-01T08:40:58.984Z,9.4
2019-04-01T08:42:08.584Z,9
2019-04-01T08:43:18.076Z,9.1
2019-04-01T08:45:37.156Z,8.1
2019-04-01T08:46:46.773Z,8.2
2019-04-01T08:47:56.248Z,7.9
2019-04-01T08:49:07.890Z,8.2
2019-04-01T08:50:15.358Z,9.5
2019-04-01T08:51:24.883Z,9.2
2019-04-01T08:52:34.462Z,9.4
2019-04-01T08:53:43.971Z,10.6
2019-04-01T08:54:56.431Z,10.1
2019-04-01T08:56:05.957Z,9.5
2019-04-01T08:57:15.558Z,9.9
2019-04-01T08:58:25.226Z,10.4
2019-04-01T08:59:34.677Z,8.4
2019-04-01T09:00:44.277Z,9
2019-04-01T09:01:53.794Z,9.1
2019-04-01T09:03:03.357Z,8.8
2019-04-01T09:04:12.922Z,9
2019-04-01T09:05:22.665Z,9
2019-04-01T09:06:32.156Z,9.4
2019-04-01T09:07:41.663Z,9.4
2019-04-01T09:08:51.375Z,8.6
2019-04-01T09:10:00.789Z,8
2019-04-01T09:11:10.361Z,9.2
2019-04-01T09:12:19.922Z,9.6
2019-04-01T09:13:29.571Z,9.7
2019-04-01T09:14:39.119Z,8.2
2019-04-01T09:15:48.618Z,9.3
2019-04-01T09:16:58.224Z,8.4
2019-04-01T09:18:07.721Z,9.7
2019-04-01T09:19:17.240Z,8.5
2019-04-01T09:20:26.806Z,8.5
2019-04-01T09:21:36.397Z,9.4
2019-04-01T09:22:45.887Z,9.9
2019-04-01T09:23:55.457Z,8.4
2019-04-01T09:25:06.054Z,8.6
2019-04-01T09:26:15.611Z,9.4
2019-04-01T09:27:25.170Z,9.8
2019-04-01T09:28:34.713Z,8.3
2019-04-01T09:29:44.307Z,9.1
2019-04-01T09:30:53.769Z,10.5
2019-04-01T09:32:03.347Z,9.6
2019-04-01T09:33:12.853Z,10.3
2019-04-01T09:34:22.418Z,9.8
2019-04-01T09:35:32.434Z,8.7
2019-04-01T09:36:41.600Z,9.1
2019-04-01T09:37:51.055Z,9.1
2019-04-01T09:39:00.636Z,9.1
2019-04-01T09:40:10.138Z,8
2019-04-01T09:41:19.775Z,7.6
2019-04-01T09:42:29.197Z,8.8
2019-04-01T09:43:38.758Z,9.5
2019-04-01T09:44:48.272Z,8.2
2019-04-01T09:45:57.855Z,9.2
2019-04-01T09:47:07.342Z,8.9
2019-04-01T09:48:16.809Z,9.4
2019-04-01T09:49:26.304Z,9.5
2019-04-01T09:50:35.996Z,9.8
2019-04-01T09:51:48.677Z,8.8
2019-04-01T09:52:54.840Z,9.4
2019-04-01T09:54:04.381Z,10.6
2019-04-01T09:55:14.087Z,9.6
2019-04-01T09:56:23.358Z,10.5
2019-04-01T09:57:33.339Z,9.4
2019-04-01T09:58:42.559Z,9.6
2019-04-01T09:59:51.928Z,10.9
2019-04-01T10:01:01.414Z,10.4
2019-04-01T10:02:10.986Z,10.5
2019-04-01T10:03:20.464Z,10
2019-04-01T10:04:30.027Z,10.1
2019-04-01T10:05:39.631Z,8.8
2019-04-01T10:06:49.078Z,9
2019-04-01T10:07:58.449Z,9.5
2019-04-01T10:09:07.932Z,9.1
2019-04-01T10:10:17.468Z,9.7
2019-04-01T10:11:26.904Z,10
2019-04-01T10:12:36.444Z,9.2
2019-04-01T10:13:45.890Z,9.4
2019-04-01T10:14:55.408Z,9.4
2019-04-01T10:17:14.439Z,9.9
2019-04-01T10:18:23.826Z,10.3
2019-04-01T10:19:33.317Z,10.9
2019-04-01T10:20:42.793Z,10.8
2019-04-01T10:21:52.551Z,10.1
2019-04-01T10:23:01.765Z,9.5
2019-04-01T10:24:11.254Z,10.2
2019-04-01T10:25:20.741Z,9.7
2019-04-01T10:26:30.244Z,10.7
2019-04-01T10:27:39.814Z,11.4
2019-04-01T10:28:49.422Z,11.4
2019-04-01T10:29:58.775Z,9.9
2019-04-01T10:31:08.225Z,10.1
2019-04-01T10:32:17.718Z,9.8
2019-04-01T10:33:27.194Z,9.7
2019-04-01T10:34:36.691Z,10.1
2019-04-01T10:35:46.186Z,9.7
2019-04-01T10:36:55.742Z,10.1
2019-04-01T10:38:05.199Z,11.3
2019-04-01T10:39:14.694Z,11.5
2019-04-01T10:40:24.106Z,11.8
2019-04-01T10:41:33.572Z,9.8
2019-04-01T10:42:43.076Z,10.6
2019-04-01T10:43:52.568Z,10.4
2019-04-01T10:45:02.189Z,10.5
2019-04-01T10:46:12.288Z,10.1
2019-04-01T10:47:21.075Z,11.4
2019-04-01T10:48:30.639Z,9.7
2019-04-01T10:49:40.293Z,10
2019-04-01T10:50:49.740Z,10.1
2019-04-01T10:51:59.137Z,10.7
2019-04-01T10:53:08.569Z,10.5
2019-04-01T10:54:18.068Z,9.5
2019-04-01T10:55:27.551Z,9.9
2019-04-01T10:56:37.076Z,11
2019-04-01T10:57:46.758Z,10.8
2019-04-01T11:00:05.604Z,10.4
2019-04-01T11:01:14.977Z,10.1
2019-04-01T11:02:24.725Z,10.8
2019-04-01T11:03:34.013Z,10.3
2019-04-01T11:04:43.441Z,10.7
2019-04-01T11:05:52.868Z,11.5
2019-04-01T11:07:02.683Z,11.1
2019-04-01T11:08:11.993Z,11.4
2019-04-01T11:09:21.602Z,10.6
2019-04-01T11:10:30.889Z,10
2019-04-01T11:11:40.369Z,11.3
2019-04-01T11:12:49.872Z,11.8
2019-04-01T11:13:59.411Z,9.3
2019-04-01T11:15:08.960Z,9.2
2019-04-01T11:16:18.416Z,10.1
2019-04-01T11:18:37.383Z,10.8
2019-04-01T11:19:46.857Z,12.4
2019-04-01T11:20:56.767Z,10.9
2019-04-01T11:22:05.863Z,10.5
2019-04-01T11:23:15.356Z,11
2019-04-01T11:24:24.838Z,10.4
2019-04-01T11:25:34.351Z,11.2
2019-04-01T11:26:43.798Z,11.4
2019-04-01T11:27:53.291Z,10.5
2019-04-01T11:29:02.785Z,10.5
2019-04-01T11:30:13.793Z,11.3
2019-04-01T11:31:21.923Z,10.3
2019-04-01T11:32:31.322Z,10.7
2019-04-01T11:33:40.871Z,11.1
2019-04-01T11:34:50.366Z,12
2019-04-01T11:35:59.824Z,12
2019-04-01T11:37:09.259Z,12.6
2019-04-01T11:38:18.798Z,12.8
2019-04-01T11:39:28.381Z,11.5
2019-04-01T11:40:38.835Z,11.2
2019-04-01T11:41:47.471Z,11.2
2019-04-01T11:42:56.923Z,11.3
2019-04-01T11:44:06.488Z,10.8
2019-04-01T11:45:15.850Z,11.4
2019-04-01T11:46:25.325Z,11.2
2019-04-01T11:47:35.279Z,12.3
2019-04-01T11:48:44.343Z,11.1
2019-04-01T11:49:53.870Z,11.5
2019-04-01T11:51:03.306Z,11
2019-04-01T11:52:15.478Z,10
2019-04-01T11:53:22.305Z,10.5
2019-04-01T11:54:31.792Z,10.8
2019-04-01T11:55:41.528Z,11
2019-04-01T11:56:50.836Z,11.1
2019-04-01T11:58:00.402Z,11.3
2019-04-01T11:59:09.807Z,10.6
2019-04-01T12:00:19.273Z,10.5
2019-04-01T12:01:28.924Z,10.4
2019-04-01T12:02:38.359Z,10.8
2019-04-01T12:03:47.778Z,10.7
2019-04-01T12:04:57.242Z,10.7
2019-04-01T12:06:06.804Z,10.5
2019-04-01T12:07:16.376Z,10.2
2019-04-01T12:08:25.742Z,10.9
2019-04-01T12:09:35.394Z,10.5
2019-04-01T12:10:44.767Z,11
2019-04-01T12:11:54.325Z,11.2
2019-04-01T12:13:03.755Z,10.8
2019-04-01T12:14:13.289Z,11.8
2019-04-01T12:15:22.794Z,11.7
2019-04-01T12:16:33.065Z,11.2
2019-04-01T12:17:42.282Z,11
2019-04-01T12:18:51.367Z,11.5
2019-04-01T12:20:00.941Z,10.5
2019-04-01T12:21:10.378Z,10.6
2019-04-01T12:22:20.054Z,11.4
2019-04-01T12:23:29.425Z,11.9
2019-04-01T12:24:40.080Z,11.9
2019-04-01T12:25:48.615Z,10.9
2019-04-01T12:26:58.164Z,11.8
2019-04-01T12:28:07.523Z,11.5
2019-04-01T12:29:17.154Z,11.2
2019-04-01T12:30:26.645Z,10.7
2019-04-01T12:31:36.149Z,11.2
2019-04-01T12:32:45.690Z,11.7
2019-04-01T12:33:55.375Z,11.4
2019-04-01T12:35:04.934Z,11
2019-04-01T12:36:14.403Z,11.1
2019-04-01T12:37:23.967Z,10.8
2019-04-01T12:38:33.462Z,11
2019-04-01T12:39:43.039Z,11.1
2019-04-01T12:40:52.595Z,12
2019-04-01T12:42:02.158Z,11.4
2019-04-01T12:43:11.725Z,11.9
2019-04-01T12:44:21.340Z,10.9
2019-04-01T12:45:30.882Z,10.9
2019-04-01T12:46:40.480Z,11.9
2019-04-01T12:47:50.117Z,11.1
2019-04-01T12:48:59.632Z,11
2019-04-01T12:50:09.236Z,11.7
2019-04-01T12:51:18.849Z,10.2
2019-04-01T12:52:28.393Z,10.7
2019-04-01T12:53:37.991Z,10.5
2019-04-01T12:54:47.551Z,10.9
2019-04-01T12:55:57.172Z,11.5
2019-04-01T12:57:06.727Z,11.5
2019-04-01T12:58:17.764Z,11.3
2019-04-01T12:59:25.859Z,11.6
2019-04-01T13:00:35.448Z,11.4
2019-04-01T13:01:45.071Z,10.7
2019-04-01T13:02:54.597Z,10.6
2019-04-01T13:04:04.482Z,11.1
2019-04-01T13:05:13.636Z,11.5
2019-04-01T13:06:23.283Z,11.1
2019-04-01T13:07:32.730Z,11.6
2019-04-01T13:08:42.288Z,10.4
2019-04-01T13:09:51.908Z,10.7
2019-04-01T13:11:01.392Z,11.3
2019-04-01T13:12:10.944Z,10.9
2019-04-01T13:13:22.687Z,11
2019-04-01T13:14:30.073Z,11.9
2019-04-01T13:15:39.640Z,11.2
2019-04-01T13:16:49.208Z,11.1
2019-04-01T13:17:58.780Z,11.2
2019-04-01T13:19:08.289Z,11.2
2019-04-01T13:20:17.882Z,11.6
2019-04-01T13:21:27.441Z,11.8
2019-04-01T13:22:38.123Z,11.1
2019-04-01T13:23:46.579Z,11
2019-04-01T13:24:56.157Z,11
2019-04-01T13:26:05.766Z,11.5
2019-04-01T13:27:15.442Z,11.4
2019-04-01T13:28:25.933Z,10.8
2019-04-01T13:29:34.472Z,11.2
2019-04-01T13:30:44.171Z,11.2
2019-04-01T13:31:53.716Z,11.1
2019-04-01T13:33:03.288Z,10.9
2019-04-01T13:34:12.897Z,10.8
2019-04-01T13:35:22.489Z,11.4
2019-04-01T13:36:32.086Z,11.1
2019-04-01T13:37:41.780Z,11.3
2019-04-01T13:38:51.376Z,11.1
2019-04-01T13:40:02.803Z,11.2
2019-04-01T13:41:12.972Z,11.3
2019-04-01T13:42:20.290Z,11.3
2019-04-01T13:43:29.850Z,11.2
2019-04-01T13:44:39.578Z,11
2019-04-01T13:45:50.071Z,11.7
2019-04-01T13:46:58.782Z,11.2
2019-04-01T13:48:08.447Z,11.3
2019-04-01T13:49:18.438Z,11.1
2019-04-01T13:50:27.756Z,11.1
2019-04-01T13:51:37.525Z,10.9
2019-04-01T13:52:47.127Z,10.8
2019-04-01T13:54:07.899Z,11.5
2019-04-01T13:55:06.566Z,11.3
2019-04-01T13:56:16.326Z,11.9
2019-04-01T13:57:25.984Z,11.5
2019-04-01T13:58:35.732Z,11.4
2019-04-01T13:59:49.309Z,11.3
2019-04-01T14:00:55.215Z,11.4
2019-04-01T14:02:04.977Z,11.5
2019-04-01T14:03:14.764Z,11.4
2019-04-01T14:04:24.525Z,11.1
2019-04-01T14:05:34.296Z,11.9
2019-04-01T14:06:44.381Z,11.6
2019-04-01T14:07:53.905Z,11.1
2019-04-01T14:09:03.677Z,11.2
2019-04-01T14:10:13.426Z,11.6
2019-04-01T14:11:23.233Z,11.6
2019-04-01T14:12:33.040Z,11.2
2019-04-01T14:13:42.840Z,11.2
2019-04-01T14:14:52.605Z,11.3
2019-04-01T14:16:02.422Z,11.2
2019-04-01T14:17:12.243Z,11.2
2019-04-01T14:18:22.084Z,11.4
2019-04-01T14:19:31.999Z,11.2
2019-04-01T14:20:41.604Z,11.1
2019-04-01T14:21:52.064Z,11.2
2019-04-01T14:23:01.216Z,11.2
2019-04-01T14:24:11.108Z,11.2
2019-04-01T14:25:20.821Z,11.1
2019-04-01T14:26:30.668Z,11.2
2019-04-01T14:27:41.864Z,11.4
2019-04-01T14:28:51.616Z,11.9
2019-04-01T14:30:01.481Z,12.3
2019-04-01T14:31:11.208Z,12
2019-04-01T14:32:21.009Z,12
2019-04-01T14:33:32.651Z,11.3
2019-04-01T14:34:40.673Z,11
2019-04-01T14:35:50.516Z,11
2019-04-01T14:37:00.426Z,11.4
2019-04-01T14:38:10.200Z,11
2019-04-01T14:39:20.016Z,11.6
2019-04-01T14:40:32.534Z,11.5
2019-04-01T14:41:39.698Z,11.7
2019-04-01T14:42:49.507Z,11.3
2019-04-01T14:43:59.398Z,11.3
2019-04-01T14:45:09.205Z,11.1
2019-04-01T14:46:19.045Z,11.1
2019-04-01T14:47:28.865Z,11.2
2019-04-01T14:48:38.735Z,11.8
2019-04-01T14:49:48.622Z,12.1
2019-04-01T14:50:58.462Z,11.9
2019-04-01T14:52:08.253Z,11.4
2019-04-01T14:53:17.980Z,12
2019-04-01T14:54:27.823Z,11.8
2019-04-01T14:55:37.612Z,11.7
2019-04-01T14:56:47.428Z,11.1
2019-04-01T14:58:00.205Z,11.1
2019-04-01T14:59:07.350Z,11.4
2019-04-01T15:00:16.851Z,11.7
2019-04-01T15:01:26.643Z,11.5
2019-04-01T15:02:36.489Z,11.2
2019-04-01T15:03:46.191Z,11.1
2019-04-01T15:04:56.135Z,11.1
2019-04-01T15:06:05.742Z,11.4
2019-04-01T15:07:18.236Z,11.7
2019-04-01T15:08:25.304Z,12.2
2019-04-01T15:09:35.107Z,11.8
2019-04-01T15:10:44.809Z,11.5
2019-04-01T15:11:54.622Z,11.6
2019-04-01T15:13:05.916Z,11.2
2019-04-01T15:14:14.097Z,11.6
2019-04-01T15:15:23.834Z,11.8
2019-04-01T15:16:33.635Z,11.3
2019-04-01T15:17:43.356Z,11.5
2019-04-01T15:18:53.054Z,11.9
2019-04-01T15:20:02.786Z,11.7
2019-04-01T15:21:12.572Z,11.3
2019-04-01T15:22:22.845Z,11.3
2019-04-01T15:23:32.384Z,11.6
2019-04-01T15:24:41.735Z,11.1
2019-04-01T15:25:54.341Z,11.8
2019-04-01T15:27:01.299Z,11.7
2019-04-01T15:28:10.878Z,11.7
2019-04-01T15:29:20.660Z,11.3
2019-04-01T15:30:31.942Z,11.6
2019-04-01T15:31:40.221Z,11.3
2019-04-01T15:32:49.833Z,11.4
2019-04-01T15:33:59.482Z,11.3
2019-04-01T15:35:09.180Z,11.5
2019-04-01T15:36:18.824Z,11.3
2019-04-01T15:37:31.988Z,11.4
2019-04-01T15:38:38.244Z,11.6
2019-04-01T15:39:49.443Z,11.3
2019-04-01T15:42:07.259Z,11.4
2019-04-01T15:43:16.854Z,11.8
2019-04-01T15:44:29.248Z,11.7
2019-04-01T15:45:36.152Z,11.6
2019-04-01T15:46:45.816Z,11.5
2019-04-01T15:47:55.442Z,11.3
2019-04-01T15:49:06.614Z,11.2
2019-04-01T15:50:27.563Z,11.4
2019-04-01T15:51:24.357Z,11.3
2019-04-01T15:52:34.593Z,11.3
2019-04-01T15:53:43.566Z,11.2
2019-04-01T15:54:53.250Z,11.3
2019-04-01T15:56:02.771Z,11.1
2019-04-01T15:57:15.151Z,11.5
2019-04-01T15:58:21.955Z,11.6
2019-04-01T15:59:31.545Z,11.2
2019-04-01T16:00:41.127Z,11.3
2019-04-01T16:01:51.231Z,11